Terminal Aerodrome Forecast
Issued by NWS

Home | Current Version | Previous Version | Text Only | Print | Product List | Glossary Off
Versions: 1 2 3 4 5 6 7 8 9 10 11 12 13 14 15 16 17 18 19

346
FTUS43 KGRB 232320
TAFAUW
TAF
KAUW 232320Z 2400/2424 10007KT P6SM BKN140
     FM240400 10007KT P6SM BKN090
     FM241000 11007KT P6SM SCT015 OVC025
      TEMPO 2411/2414 BKN015
     FM241600 13009KT P6SM BKN035 OVC060=

USA.gov is the U.S. government's official web portal to all federal, state and local government web resources and services.